x

South Hatteras - 225 South Of Cape Hatteras (41002) Wave Buoy

5:50 - Sun 30th Apr 2017 All times are EDT. -4 hours from GMT.

  • Sig Wave height 3.0ft
  • Swell Direction
  • Peak Period 6s
  • Average Period 5s
  • Wind
    11mph, 13mph gusts
  • Sea Temp 76°f
  • Aire Temp 74°f
  • Sea Pressure 1024.5mb
  • South Hatteras - 225 South Of Cape Hatteras
  • South Hatteras - 225 South Of Cape Hatteras

More Historic Weather Station data

Upgrade to MSW Pro to gain access to the past 30 days of data for over 8000 Wavebouys and Weather Stations around the globe.

Join Pro

Comparision Forecast

View Surf forecast
   
dom 04/30 5:50 3ft 6s 5s 11 13 mph 1024.5mb 76f 74f
4:50 3ft 6s 5s 11
mph
1024.3mb 76f 74f
3:50 3ft 9s 5s 13 16 mph 1024.3mb 76f 74f
2:50 3ft 7s 5s 13 16 mph 1024.1mb 76f 74f
1:50 3ft 6s 5s 11 13 mph 1024.6mb 76f 74f
12:50 2.5ft 7s 5s 11 13 mph 1024.9mb 76f 74f
sáb 04/29 11:50 3ft 7s 5s 13
mph
1024.7mb 76f 74f
10:50 3ft 7s 5s 11 13 mph 1024.8mb 76f 74f
8:50 3ft 6s 5s 9 11 mph 1025mb 76f 75f
7:50 3ft 7s 5s 11
mph
1024.8mb 76f 75f
6:50 3ft 7s 5s 13 16 mph 1024.6mb 76f 75f
5:50 3ft 8s 5s 16 18 mph 1024.4mb 76f 75f
4:50 3ft 7s 5s 13 16 mph 1024.4mb 76f 75f
3:50 3ft 7s 5s 11 13 mph 1024.7mb 76f 75f
2:50 3ft 5s 5s 11 13 mph 1025.4mb 76f 75f
1:50 3ft 8s 5s 11 13 mph 1025.6mb 76f 75f
12:50 3.5ft 7s 5s 9 11 mph 1026mb 76f 75f
11:50 3ft 7s 5s 11 13 mph 1025.9mb 76f 75f
10:50 3ft 7s 5s 11 13 mph 1026mb 76f 75f
9:50 3.5ft 7s 5s 9 11 mph 1025.9mb 76f 74f
8:50 3.5ft 7s 5s 9 11 mph 1025.6mb 75f 74f
7:50 3.5ft 7s 5s 11
mph
1025.2mb 76f 74f
6:50 3.5ft 7s 5s 11 13 mph 1024.4mb 76f 74f
5:50 3.5ft 8s 5s 13 16 mph 1023.5mb 75f 74f
4:50 3.5ft 7s 5s 13 16 mph 1023.5mb 75f 74f
3:50 3.5ft 7s 5s 16 18 mph 1023.3mb 74f 74f
2:50 3.5ft 8s 5s 16 18 mph 1023.6mb 74f 74f
1:50 3.5ft 8s 5s 16 20 mph 1023.8mb 74f 74f
12:50 3.5ft 8s 5s 16 20 mph 1024.3mb 74f 74f
vie 04/28 11:50 3.5ft 8s 5s 13 16 mph 1024.9mb 75f 74f
10:50 3.5ft 8s 5s 13 16 mph 1024.7mb 76f 75f
9:50 3.5ft 7s  -  13 16 mph 1024.5mb 76f 75f
8:50 3.5ft 8s 6s 9 11 mph 1023.9mb 76f 75f
7:50 3.5ft 8s 6s 9
mph
1023.4mb 76f 75f
6:50 3.5ft 5s 5s 9
mph
1023mb 76f 75f
5:50 3.5ft 8s 5s 11
mph
1022.6mb 76f 75f
4:50 3.5ft 7s 5s 11 13 mph 1022.4mb 76f 75f
3:50 4ft 6s 5s 13 16 mph 1022.3mb 76f 75f
2:50 4.5ft 5s 5s 13 16 mph 1022.3mb 76f 75f
1:50 4ft 8s 5s 13 16 mph 1022.5mb 76f 76f
12:50 3.5ft 8s 6s 11 13 mph 1022.6mb 76f 76f
11:50 3.5ft 8s 5s 11 13 mph 1022.7mb 76f 75f
10:50 3.5ft 8s 6s 11 13 mph 1022.4mb 76f 75f
9:50 3.5ft 7s 5s 13 16 mph 1021.9mb 75f 75f
7:50 4.5ft 5s  -  13 16 mph 1021.3mb 75f 75f
6:50 4.5ft 6s 5s 16 18 mph 1020.4mb 75f 75f
5:50 4.5ft 8s 5s 13 18 mph 1019.2mb 75f 75f
4:50 4.5ft 6s 5s 18 20 mph 1018.4mb 75f 74f
3:50 4ft 8s 5s 20 22 mph 1018mb 75f 74f
2:50 4ft 8s 5s 16 18 mph 1018.5mb 75f 74f
1:50 4ft 8s 5s 13 18 mph 1018.7mb 75f 74f
12:50 3.5ft 6s 5s 18 20 mph 1018.1mb 75f 74f
jue 04/27 11:50 4.5ft 6s 5s 13 16 mph 1018.3mb 75f 75f
10:50 4ft 8s 5s 18 22 mph 1018.1mb 75f 75f
9:50 4.5ft 8s 6s 18 20 mph 1017.9mb 75f 75f
7:50 4.5ft 6s 5s 16 18 mph 1017.7mb 75f 75f
6:50 4.5ft 8s 6s 13 18 mph 1016.9mb 75f 74f
5:50 4.5ft 8s 6s 16 18 mph 1016.6mb 75f 74f
4:50 4.5ft 5s 5s 16 18 mph 1016.4mb 75f 74f
3:50 5ft 8s 6s 16 18 mph 1016.9mb 75f 74f
2:50 5ft 8s 6s 11 13 mph 1017.7mb 75f 75f
1:50 5ft 8s 6s 16 18 mph 1018.1mb 75f 74f
12:50 5ft 8s 6s 18 20 mph 1018mb 75f 74f
11:50 5ft 8s 6s 16 20 mph 1018.2mb 74f 74f
10:50 5ft 8s 6s 16 18 mph 1017.7mb 74f 74f
9:50 5ft 8s 6s 16 20 mph 1017.1mb 74f 74f
8:50 5ft 8s 6s 18 20 mph 1016.9mb 74f 74f
7:50 5ft 9s 6s 16 18 mph 1016.3mb 74f 74f
6:50 5ft 8s 6s 16 18 mph 1015.5mb 74f 74f
5:50 5.5ft 9s 6s 13 16 mph 1015.2mb 74f 74f
4:50 5.5ft 9s 6s 16 18 mph 1014.8mb 75f 74f
3:50 5.5ft 9s 6s 16 20 mph 1014.6mb 75f 74f
2:50 5.5ft 9s 6s 18 22 mph 1014.4mb 75f 74f
1:50 5ft 9s 6s 16 20 mph 1014.9mb 75f 74f
12:50 5.5ft 8s 6s 16 18 mph 1015.5mb 75f 74f
mié 04/26 11:50 6ft 6s 6s 16 18 mph 1015.2mb 75f 74f
10:50 6ft 9s 6s 16 18 mph 1014.9mb 75f 75f
9:50 5.5ft 9s 6s 11 13 mph 1014.5mb 75f 75f
7:50 6ft 8s 6s 13 16 mph 1013.2mb 75f 74f
6:50 6ft 9s 7s 11 16 mph 1012.6mb 75f 74f
5:50 6ft 7s 6s 11 13 mph 1012.5mb 75f 74f
4:50 6.5ft 9s 6s 9 11 mph 1012.5mb 75f 73f
3:50 7.5ft 8s 6s 11 16 mph 1012.5mb 75f 71f
2:50 7ft 8s 6s 18 25 mph 1012.7mb 75f 74f
1:50 7ft 8s 6s 18 22 mph 1012.9mb 75f 74f
12:50 7.5ft 9s 6s 18 22 mph 1012.9mb 75f 74f
11:50 8ft 8s 6s 20 22 mph 1012.6mb 75f 74f